createdAt,value
2022-10-01T00:00:03.087Z,6.97
2022-10-01T00:00:13.138Z,6.96
2022-10-01T00:00:23.011Z,6.96
2022-10-01T00:00:33.115Z,6.96
2022-10-01T00:00:42.999Z,6.97
2022-10-01T00:00:53.028Z,6.97
2022-10-01T00:01:03.182Z,6.96
2022-10-01T00:01:13.126Z,6.97
2022-10-01T00:01:23.106Z,6.96
2022-10-01T00:01:33.411Z,6.97
2022-10-01T00:01:43.080Z,6.97
2022-10-01T00:01:53.147Z,6.94
2022-10-01T00:02:03.107Z,6.97
2022-10-01T00:02:13.166Z,6.93
2022-10-01T00:02:23.051Z,6.96
2022-10-01T00:02:33.085Z,6.96
2022-10-01T00:02:43.100Z,6.97
2022-10-01T00:02:53.145Z,6.96
2022-10-01T00:03:03.115Z,6.96
2022-10-01T00:03:13.127Z,6.97
2022-10-01T00:03:23.103Z,6.97
2022-10-01T00:03:33.046Z,6.97
2022-10-01T00:03:43.104Z,6.99
2022-10-01T00:03:53.018Z,6.99
2022-10-01T00:04:03.055Z,6.99
2022-10-01T00:04:13.065Z,6.99
2022-10-01T00:04:23.007Z,6.99
2022-10-01T00:04:32.993Z,7.00
2022-10-01T00:04:42.988Z,6.99
2022-10-01T00:04:53.058Z,6.99
2022-10-01T00:05:03.103Z,7.00
2022-10-01T00:05:13.125Z,6.99
2022-10-01T00:05:23.043Z,6.97
2022-10-01T00:05:33.001Z,7.00
2022-10-01T00:05:43.100Z,7.00
2022-10-01T00:05:53.087Z,6.97
2022-10-01T00:06:03.029Z,6.99
2022-10-01T00:06:13.051Z,6.99
2022-10-01T00:06:23.090Z,6.97
2022-10-01T00:06:33.064Z,6.97
2022-10-01T00:06:43.124Z,6.96
2022-10-01T00:06:53.043Z,6.97
2022-10-01T00:07:03.002Z,6.97
2022-10-01T00:07:13.025Z,6.97
2022-10-01T00:07:23.095Z,6.99
2022-10-01T00:07:33.104Z,6.99
2022-10-01T00:07:42.997Z,6.99
2022-10-01T00:07:52.994Z,7.00
2022-10-01T00:08:03.091Z,7.00
2022-10-01T00:08:13.070Z,7.01
2022-10-01T00:08:22.994Z,7.01
2022-10-01T00:08:33.109Z,7.00
2022-10-01T00:08:43.078Z,7.01
2022-10-01T00:08:53.138Z,7.00
2022-10-01T00:09:03.080Z,7.01
2022-10-01T00:09:13.015Z,7.01
2022-10-01T00:09:23.072Z,7.01
2022-10-01T00:09:33.069Z,7.04
2022-10-01T00:09:43.070Z,7.01
2022-10-01T00:09:53.062Z,7.01
2022-10-01T00:10:02.993Z,7.01
2022-10-01T00:10:13.083Z,7.04
2022-10-01T00:10:23.041Z,7.04
2022-10-01T00:10:33.053Z,7.05
2022-10-01T00:10:43.040Z,7.05
2022-10-01T00:10:53.053Z,7.05
2022-10-01T00:11:02.994Z,7.07
2022-10-01T00:11:13.005Z,7.07
2022-10-01T00:11:23.106Z,7.08
2022-10-01T00:11:33.334Z,7.09
2022-10-01T00:11:43.002Z,7.08
2022-10-01T00:11:53.064Z,7.08
2022-10-01T00:12:02.998Z,7.08
2022-10-01T00:12:13.106Z,7.08
2022-10-01T00:12:23.041Z,7.08
2022-10-01T00:12:33.052Z,7.09
2022-10-01T00:12:43.073Z,7.08
2022-10-01T00:12:53.002Z,7.09
2022-10-01T00:13:03.085Z,7.09
2022-10-01T00:13:13.016Z,7.09
2022-10-01T00:13:22.992Z,7.09
2022-10-01T00:13:33.048Z,7.12
2022-10-01T00:13:43.027Z,7.12
2022-10-01T00:13:53.111Z,7.12
2022-10-01T00:14:03.128Z,7.14
2022-10-01T00:14:13.062Z,7.15
2022-10-01T00:14:23.047Z,7.12
2022-10-01T00:14:33.055Z,7.16
2022-10-01T00:14:43.009Z,7.16
2022-10-01T00:14:53.054Z,7.16
2022-10-01T00:15:05.945Z,7.16
2022-10-01T00:15:13.734Z,7.18
2022-10-01T00:15:23.038Z,7.18
2022-10-01T00:15:33.050Z,7.19
2022-10-01T00:15:42.993Z,7.18
2022-10-01T00:15:53.106Z,7.19
2022-10-01T00:16:03.025Z,7.19
2022-10-01T00:16:13.122Z,7.21
2022-10-01T00:16:23.151Z,7.19
2022-10-01T00:16:33.148Z,7.19
2022-10-01T00:16:43.173Z,7.21
2022-10-01T00:16:53.134Z,7.21
2022-10-01T00:17:03.111Z,7.23
2022-10-01T00:17:13.042Z,7.21
2022-10-01T00:17:23.033Z,7.23
2022-10-01T00:17:32.991Z,7.24
2022-10-01T00:17:43.068Z,7.23
2022-10-01T00:17:52.996Z,7.24
2022-10-01T00:18:03.057Z,7.23
2022-10-01T00:18:13.073Z,7.23
2022-10-01T00:18:23.034Z,7.24
2022-10-01T00:18:33.011Z,7.26
2022-10-01T00:18:43.087Z,7.26
2022-10-01T00:18:53.031Z,7.24
2022-10-01T00:19:02.994Z,7.27
2022-10-01T00:19:13.118Z,7.27
2022-10-01T00:19:23.022Z,7.27
2022-10-01T00:19:33.133Z,7.27
2022-10-01T00:19:43.071Z,7.27
2022-10-01T00:19:53.095Z,7.26
2022-10-01T00:20:10.546Z,7.29
2022-10-01T00:20:14.562Z,7.26
2022-10-01T00:20:22.990Z,7.27
2022-10-01T00:20:33.034Z,7.27
2022-10-01T00:20:43.086Z,7.29
2022-10-01T00:20:53.101Z,7.30
2022-10-01T00:21:03.016Z,7.30
2022-10-01T00:21:13.099Z,7.30
2022-10-01T00:21:23.101Z,7.30
2022-10-01T00:21:33.388Z,7.30
2022-10-01T00:21:43.104Z,7.32
2022-10-01T00:21:53.030Z,7.32
2022-10-01T00:22:03.110Z,7.32
2022-10-01T00:22:13.061Z,7.32
2022-10-01T00:22:23.100Z,7.33
2022-10-01T00:22:33.049Z,7.33
2022-10-01T00:22:43.094Z,7.34
2022-10-01T00:22:53.039Z,7.34
2022-10-01T00:23:03.060Z,7.34
2022-10-01T00:23:13.014Z,7.36
2022-10-01T00:23:23.000Z,7.37
2022-10-01T00:23:33.000Z,7.36
2022-10-01T00:23:43.092Z,7.37
2022-10-01T00:23:53.097Z,7.37
2022-10-01T00:24:03.118Z,7.39
2022-10-01T00:24:13.050Z,7.39
2022-10-01T00:24:22.989Z,7.41
2022-10-01T00:24:33.022Z,7.44
2022-10-01T00:24:43.000Z,7.44
2022-10-01T00:24:53.091Z,7.48
2022-10-01T00:25:03.081Z,7.50
2022-10-01T00:25:12.998Z,7.54
2022-10-01T00:25:23.027Z,7.60
2022-10-01T00:25:33.114Z,7.66
2022-10-01T00:25:43.003Z,7.69
2022-10-01T00:25:53.078Z,7.71
2022-10-01T00:26:03.094Z,7.74
2022-10-01T00:26:13.031Z,7.76
2022-10-01T00:26:23.018Z,7.81
2022-10-01T00:26:33.082Z,7.82
2022-10-01T00:26:43.145Z,7.85
2022-10-01T00:26:53.079Z,7.89
2022-10-01T00:27:03.059Z,7.92
2022-10-01T00:27:13.048Z,7.95
2022-10-01T00:27:23.006Z,8.02
2022-10-01T00:27:33.018Z,8.02
2022-10-01T00:27:43.014Z,8.06
2022-10-01T00:27:53.077Z,8.09
2022-10-01T00:28:03.064Z,8.10
2022-10-01T00:28:13.093Z,8.14
2022-10-01T00:28:23.137Z,8.20
2022-10-01T00:28:33.075Z,8.22
2022-10-01T00:28:43.018Z,8.25
2022-10-01T00:28:53.072Z,8.29
2022-10-01T00:29:03.076Z,8.32
2022-10-01T00:29:13.079Z,8.37
2022-10-01T00:29:23.002Z,8.39
2022-10-01T00:29:33.014Z,8.45
2022-10-01T00:29:43.029Z,8.49
2022-10-01T00:29:53.022Z,8.50
2022-10-01T00:30:03.107Z,8.55
2022-10-01T00:30:13.003Z,8.58
2022-10-01T00:30:23.054Z,8.61
2022-10-01T00:30:36.151Z,8.65
2022-10-01T00:30:43.070Z,8.67
2022-10-01T00:30:53.118Z,8.71
2022-10-01T00:31:03.125Z,8.75
2022-10-01T00:31:13.148Z,8.78
2022-10-01T00:31:23.114Z,8.80
2022-10-01T00:31:33.552Z,8.83
2022-10-01T00:31:43.207Z,8.86
2022-10-01T00:31:53.211Z,8.91
2022-10-01T00:32:03.173Z,8.93
2022-10-01T00:32:13.067Z,8.97
2022-10-01T00:32:23.095Z,9.01
2022-10-01T00:32:33.049Z,9.01
2022-10-01T00:32:43.106Z,9.06
2022-10-01T00:32:53.031Z,9.08
2022-10-01T00:33:02.991Z,9.13
2022-10-01T00:33:13.019Z,9.16
2022-10-01T00:33:22.992Z,9.19
2022-10-01T00:33:33.047Z,9.19
2022-10-01T00:33:43.044Z,9.23
2022-10-01T00:33:53.054Z,9.24
2022-10-01T00:34:03.022Z,9.26
2022-10-01T00:34:13.044Z,9.30
2022-10-01T00:34:23.010Z,9.31
2022-10-01T00:34:33.063Z,9.32
2022-10-01T00:34:43.053Z,9.35
2022-10-01T00:34:53.065Z,9.38
2022-10-01T00:35:03.033Z,9.40
2022-10-01T00:35:13.034Z,9.40
2022-10-01T00:35:23.037Z,9.42
2022-10-01T00:35:33.074Z,9.45
2022-10-01T00:35:43.020Z,9.48
2022-10-01T00:35:53.090Z,9.49
2022-10-01T00:36:03.061Z,9.52
2022-10-01T00:36:13.029Z,9.52
2022-10-01T00:36:23.122Z,9.56
2022-10-01T00:36:33.084Z,9.58
2022-10-01T00:36:43.047Z,9.60
2022-10-01T00:36:53.010Z,9.60
2022-10-01T00:37:03.001Z,9.60
2022-10-01T00:37:13.019Z,9.62
2022-10-01T00:37:22.998Z,9.65
2022-10-01T00:37:33.069Z,9.65
2022-10-01T00:37:43.062Z,9.68
2022-10-01T00:37:53.090Z,9.70
2022-10-01T00:38:03.033Z,9.71
2022-10-01T00:38:13.046Z,9.74
2022-10-01T00:38:23.066Z,9.77
2022-10-01T00:38:33.064Z,9.78
2022-10-01T00:38:43.008Z,9.81
2022-10-01T00:38:53.104Z,9.85
2022-10-01T00:39:02.988Z,9.85
2022-10-01T00:39:13.011Z,9.88
2022-10-01T00:39:23.037Z,9.91
2022-10-01T00:39:33.047Z,9.92
2022-10-01T00:39:43.007Z,9.95
2022-10-01T00:39:53.092Z,9.96
2022-10-01T00:40:02.992Z,9.98
2022-10-01T00:40:13.125Z,9.99
2022-10-01T00:40:23.092Z,9.99
2022-10-01T00:40:32.992Z,10.02
2022-10-01T00:40:43.054Z,10.02
2022-10-01T00:40:53.007Z,10.06
2022-10-01T00:41:03.035Z,10.04
2022-10-01T00:41:13.005Z,10.09
2022-10-01T00:41:23.111Z,10.10
2022-10-01T00:41:33.576Z,10.10
2022-10-01T00:41:43.041Z,10.13
2022-10-01T00:41:53.045Z,10.14
2022-10-01T00:42:03.047Z,10.14
2022-10-01T00:42:13.083Z,10.17
2022-10-01T00:42:23.104Z,10.20
2022-10-01T00:42:33.123Z,10.20
2022-10-01T00:42:43.134Z,10.25
2022-10-01T00:42:53.104Z,10.26
2022-10-01T00:43:02.999Z,10.28
2022-10-01T00:43:13.019Z,10.29
2022-10-01T00:43:23.005Z,10.31
2022-10-01T00:43:32.993Z,10.34
2022-10-01T00:43:43.076Z,10.35
2022-10-01T00:43:52.990Z,10.36
2022-10-01T00:44:03.061Z,10.38
2022-10-01T00:44:13.058Z,10.39
2022-10-01T00:44:23.036Z,10.42
2022-10-01T00:44:33.102Z,10.43
2022-10-01T00:44:43.020Z,10.43
2022-10-01T00:44:53.082Z,10.47
2022-10-01T00:45:03.057Z,10.51
2022-10-01T00:45:13.053Z,10.47
2022-10-01T00:45:23.097Z,10.51
2022-10-01T00:45:33.083Z,10.52
2022-10-01T00:45:43.075Z,10.52
2022-10-01T00:45:53.124Z,10.54
2022-10-01T00:46:03.195Z,10.57
2022-10-01T00:46:13.084Z,10.57
2022-10-01T00:46:23.130Z,10.58
2022-10-01T00:46:33.103Z,10.60
2022-10-01T00:46:43.114Z,10.58
2022-10-01T00:46:53.051Z,10.62
2022-10-01T00:47:03.002Z,10.62
2022-10-01T00:47:13.008Z,10.63
2022-10-01T00:47:22.998Z,10.62
2022-10-01T00:47:33.121Z,10.63
2022-10-01T00:47:43.109Z,10.63
2022-10-01T00:47:53.102Z,10.65
2022-10-01T00:48:03.069Z,10.65
2022-10-01T00:48:13.005Z,10.63
2022-10-01T00:48:23.074Z,10.66
2022-10-01T00:48:33.048Z,10.62
2022-10-01T00:48:43.111Z,10.66
2022-10-01T00:48:53.092Z,10.68
2022-10-01T00:49:03.110Z,10.68
2022-10-01T00:49:13.053Z,10.68
2022-10-01T00:49:23.013Z,10.68
2022-10-01T00:49:33.058Z,10.69
2022-10-01T00:49:43.003Z,10.69
2022-10-01T00:49:55.452Z,10.69
2022-10-01T00:50:03.046Z,10.69
2022-10-01T00:50:13.065Z,10.70
2022-10-01T00:50:23.002Z,10.70
2022-10-01T00:50:33.057Z,10.72
2022-10-01T00:50:43.053Z,10.72
2022-10-01T00:50:53.074Z,10.70
2022-10-01T00:51:03.051Z,10.73
2022-10-01T00:51:13.059Z,10.73
2022-10-01T00:51:23.021Z,10.72
2022-10-01T00:51:33.389Z,10.73
2022-10-01T00:51:43.010Z,10.72
2022-10-01T00:51:53.098Z,10.72
2022-10-01T00:52:03.046Z,10.75
2022-10-01T00:52:13.047Z,10.75
2022-10-01T00:52:23.003Z,10.73
2022-10-01T00:52:33.116Z,10.75
2022-10-01T00:52:43.059Z,10.75
2022-10-01T00:52:53.119Z,10.75
2022-10-01T00:53:03.113Z,10.75
2022-10-01T00:53:12.991Z,10.76
2022-10-01T00:53:23.067Z,10.76
2022-10-01T00:53:33.073Z,10.76
2022-10-01T00:53:43.005Z,10.78
2022-10-01T00:53:52.998Z,10.73
2022-10-01T00:54:03.058Z,10.76
2022-10-01T00:54:13.080Z,10.76
2022-10-01T00:54:23.090Z,10.78
2022-10-01T00:54:33.033Z,10.78
2022-10-01T00:54:43.078Z,10.80
2022-10-01T00:54:53.073Z,10.78
2022-10-01T00:55:03.121Z,10.78
2022-10-01T00:55:13.038Z,10.80
2022-10-01T00:55:23.113Z,10.78
2022-10-01T00:55:32.998Z,10.78
2022-10-01T00:55:43.072Z,10.80
2022-10-01T00:55:53.033Z,10.80
2022-10-01T00:56:03.057Z,10.81
2022-10-01T00:56:13.016Z,10.81
2022-10-01T00:56:23.110Z,10.81
2022-10-01T00:56:33.057Z,10.81
2022-10-01T00:56:43.118Z,10.81
2022-10-01T00:56:53.113Z,10.78
2022-10-01T00:57:03.003Z,10.81
2022-10-01T00:57:13.084Z,10.83
2022-10-01T00:57:23.060Z,10.83
2022-10-01T00:57:33.004Z,10.83
2022-10-01T00:57:43.120Z,10.84
2022-10-01T00:57:53.019Z,10.83
2022-10-01T00:58:03.097Z,10.84
2022-10-01T00:58:13.078Z,10.84
2022-10-01T00:58:23.016Z,10.84
2022-10-01T00:58:33.079Z,10.84
2022-10-01T00:58:43.116Z,10.84
2022-10-01T00:58:53.129Z,10.84
2022-10-01T00:59:03.006Z,10.86
2022-10-01T00:59:13.020Z,10.86
2022-10-01T00:59:23.053Z,10.86
2022-10-01T00:59:33.034Z,10.87
2022-10-01T00:59:43.038Z,10.87
2022-10-01T00:59:53.113Z,10.87
2022-10-01T01:00:03.000Z,10.86
2022-10-01T01:00:13.004Z,10.87
2022-10-01T01:00:23.088Z,10.87
2022-10-01T01:00:33.076Z,10.87
2022-10-01T01:00:43.047Z,10.86
2022-10-01T01:00:53.120Z,10.87
2022-10-01T01:01:03.132Z,10.87
2022-10-01T01:01:13.083Z,10.88
2022-10-01T01:01:23.138Z,10.88
2022-10-01T01:01:33.428Z,10.88
2022-10-01T01:01:43.097Z,10.87
2022-10-01T01:01:53.216Z,10.88
2022-10-01T01:02:03.171Z,10.88
2022-10-01T01:02:13.111Z,10.88
2022-10-01T01:02:23.035Z,10.86
2022-10-01T01:02:33.081Z,10.88
2022-10-01T01:02:43.069Z,10.88
2022-10-01T01:02:53.004Z,10.88
2022-10-01T01:03:03.099Z,10.88
2022-10-01T01:03:13.106Z,10.88
2022-10-01T01:03:23.039Z,10.88
2022-10-01T01:03:33.059Z,10.88
2022-10-01T01:03:43.072Z,10.88
2022-10-01T01:03:53.031Z,10.88
2022-10-01T01:04:03.033Z,10.88
2022-10-01T01:04:13.122Z,10.90
2022-10-01T01:04:23.034Z,10.88
2022-10-01T01:04:33.114Z,10.90
2022-10-01T01:04:42.992Z,10.90
2022-10-01T01:04:53.098Z,10.90
2022-10-01T01:05:03.077Z,10.90
2022-10-01T01:05:13.102Z,10.91
2022-10-01T01:05:23.074Z,10.91
2022-10-01T01:05:33.055Z,10.90
2022-10-01T01:05:43.100Z,10.90
2022-10-01T01:05:53.047Z,10.90
2022-10-01T01:06:03.051Z,10.91
2022-10-01T01:06:13.104Z,10.90
2022-10-01T01:06:23.077Z,10.90
2022-10-01T01:06:33.003Z,10.91
2022-10-01T01:06:43.037Z,10.93
2022-10-01T01:06:53.002Z,10.91
2022-10-01T01:07:03.024Z,10.93
2022-10-01T01:07:13.073Z,10.91
2022-10-01T01:07:22.987Z,10.98
2022-10-01T01:07:33.115Z,10.94
2022-10-01T01:07:43.095Z,10.95
2022-10-01T01:07:53.026Z,10.93
2022-10-01T01:08:03.106Z,10.94
2022-10-01T01:08:13.050Z,10.93
2022-10-01T01:08:23.153Z,10.94
2022-10-01T01:08:33.080Z,10.93
2022-10-01T01:08:43.054Z,10.93
2022-10-01T01:08:53.065Z,10.95
2022-10-01T01:09:03.042Z,10.95
2022-10-01T01:09:13.038Z,10.94
2022-10-01T01:09:23.109Z,10.94
2022-10-01T01:09:33.037Z,10.95
2022-10-01T01:09:43.027Z,10.95
2022-10-01T01:09:53.102Z,10.93
2022-10-01T01:10:03.038Z,10.95
2022-10-01T01:10:13.128Z,10.95
2022-10-01T01:10:23.072Z,10.95
2022-10-01T01:10:33.084Z,10.95
2022-10-01T01:10:43.034Z,10.95
2022-10-01T01:10:52.994Z,10.95
2022-10-01T01:11:03.071Z,10.94
2022-10-01T01:11:13.083Z,10.95
2022-10-01T01:11:22.988Z,10.95
2022-10-01T01:11:33.415Z,10.98
2022-10-01T01:11:43.101Z,10.95
2022-10-01T01:11:53.038Z,10.94
2022-10-01T01:12:03.099Z,10.95
2022-10-01T01:12:13.073Z,10.95
2022-10-01T01:12:23.026Z,10.95
2022-10-01T01:12:33.080Z,10.98
2022-10-01T01:12:43.005Z,10.95
2022-10-01T01:12:53.122Z,10.95
2022-10-01T01:13:03.001Z,10.95
2022-10-01T01:13:13.008Z,10.95
2022-10-01T01:13:23.112Z,10.98
2022-10-01T01:13:33.112Z,10.98
2022-10-01T01:13:43.052Z,10.98
2022-10-01T01:13:53.050Z,10.98
2022-10-01T01:14:03.011Z,10.98
2022-10-01T01:14:13.011Z,10.99
2022-10-01T01:14:23.115Z,10.99
2022-10-01T01:14:33.027Z,10.98
2022-10-01T01:14:43.026Z,10.99
2022-10-01T01:14:53.082Z,10.99
2022-10-01T01:15:03.008Z,10.99
2022-10-01T01:15:13.019Z,10.99
2022-10-01T01:15:23.017Z,10.98
2022-10-01T01:15:33.208Z,11.01
2022-10-01T01:15:43.027Z,10.99
2022-10-01T01:15:53.101Z,10.99
2022-10-01T01:16:03.064Z,10.99
2022-10-01T01:16:13.173Z,10.99
2022-10-01T01:16:23.143Z,10.99
2022-10-01T01:16:33.104Z,10.99
2022-10-01T01:16:43.022Z,10.99
2022-10-01T01:16:53.111Z,10.99
2022-10-01T01:17:03.075Z,10.99
2022-10-01T01:17:13.093Z,10.98
2022-10-01T01:17:23.109Z,10.99
2022-10-01T01:17:33.087Z,10.99
2022-10-01T01:17:43.034Z,10.98
2022-10-01T01:17:53.053Z,10.99
2022-10-01T01:18:03.061Z,11.01
2022-10-01T01:18:13.079Z,10.98
2022-10-01T01:18:23.029Z,10.98
2022-10-01T01:18:33.108Z,10.98
2022-10-01T01:18:43.042Z,10.99
2022-10-01T01:18:53.071Z,10.98
2022-10-01T01:19:03.028Z,10.98
2022-10-01T01:19:13.053Z,10.98
2022-10-01T01:19:23.067Z,10.98
2022-10-01T01:19:32.996Z,10.95
2022-10-01T01:19:43.000Z,10.95
2022-10-01T01:19:53.074Z,10.98
2022-10-01T01:20:03.096Z,10.95
2022-10-01T01:20:13.066Z,10.98
2022-10-01T01:20:23.053Z,10.95
2022-10-01T01:20:33.083Z,10.95
2022-10-01T01:20:43.003Z,10.95
2022-10-01T01:20:53.081Z,10.95
2022-10-01T01:21:03.067Z,10.95
2022-10-01T01:21:13.056Z,10.95
2022-10-01T01:21:23.104Z,10.99
2022-10-01T01:21:33.461Z,10.94
2022-10-01T01:21:43.060Z,10.94
2022-10-01T01:21:53.051Z,10.95
2022-10-01T01:22:03.000Z,10.94
2022-10-01T01:22:13.030Z,10.94
2022-10-01T01:22:23.111Z,10.95
2022-10-01T01:22:33.131Z,10.94
2022-10-01T01:22:43.018Z,10.94
2022-10-01T01:22:53.005Z,10.94
2022-10-01T01:23:03.014Z,10.93
2022-10-01T01:23:12.991Z,10.93
2022-10-01T01:23:23.043Z,10.94
2022-10-01T01:23:33.049Z,10.94
2022-10-01T01:23:43.067Z,10.94
2022-10-01T01:23:53.018Z,10.93
2022-10-01T01:24:03.076Z,10.94
2022-10-01T01:24:13.104Z,10.93
2022-10-01T01:24:23.025Z,10.94
2022-10-01T01:24:33.012Z,10.93
2022-10-01T01:24:43.087Z,10.91
2022-10-01T01:24:53.095Z,10.93
2022-10-01T01:25:03.064Z,10.93
2022-10-01T01:25:13.050Z,10.93
2022-10-01T01:25:23.011Z,10.91
2022-10-01T01:25:33.061Z,10.91
2022-10-01T01:25:43.098Z,10.91
2022-10-01T01:25:53.020Z,10.91
2022-10-01T01:26:03.033Z,10.91
2022-10-01T01:26:13.061Z,10.91
2022-10-01T01:26:23.021Z,10.90
2022-10-01T01:26:33.139Z,10.91
2022-10-01T01:26:43.112Z,10.90
2022-10-01T01:26:53.119Z,10.90
2022-10-01T01:27:03.119Z,10.91
2022-10-01T01:27:13.124Z,10.91
2022-10-01T01:27:23.022Z,10.90
2022-10-01T01:27:33.024Z,10.88
2022-10-01T01:27:43.151Z,10.91
2022-10-01T01:27:53.054Z,10.90
2022-10-01T01:28:03.122Z,10.90
2022-10-01T01:28:13.106Z,10.90
2022-10-01T01:28:23.191Z,10.88
2022-10-01T01:28:33.028Z,10.88
2022-10-01T01:28:43.033Z,10.88
2022-10-01T01:28:53.068Z,10.88
2022-10-01T01:29:03.079Z,10.87
2022-10-01T01:29:13.052Z,10.88
2022-10-01T01:29:23.068Z,10.88
2022-10-01T01:29:33.103Z,10.87
2022-10-01T01:29:43.108Z,10.87
2022-10-01T01:29:53.017Z,10.87
2022-10-01T01:30:03.084Z,10.87
2022-10-01T01:30:13.112Z,10.87
2022-10-01T01:30:23.120Z,10.86
2022-10-01T01:30:33.010Z,10.86
2022-10-01T01:30:43.064Z,10.87
2022-10-01T01:30:53.133Z,10.86
2022-10-01T01:31:03.093Z,10.86
2022-10-01T01:31:13.135Z,10.84
2022-10-01T01:31:23.211Z,10.86
2022-10-01T01:31:33.424Z,10.88
2022-10-01T01:31:43.090Z,10.86
2022-10-01T01:31:53.115Z,10.86
2022-10-01T01:32:03.066Z,10.86
2022-10-01T01:32:14.980Z,10.84
2022-10-01T01:32:22.996Z,10.86
2022-10-01T01:32:33.009Z,10.84
2022-10-01T01:32:43.124Z,10.86
2022-10-01T01:32:53.041Z,10.86
2022-10-01T01:33:03.043Z,10.86
2022-10-01T01:33:12.996Z,10.84
2022-10-01T01:33:23.025Z,10.86
2022-10-01T01:33:33.031Z,10.83
2022-10-01T01:33:43.076Z,10.84
2022-10-01T01:33:53.019Z,10.86
2022-10-01T01:34:03.060Z,10.84
2022-10-01T01:34:12.998Z,10.84
2022-10-01T01:34:22.992Z,10.84
2022-10-01T01:34:33.024Z,10.84
2022-10-01T01:34:43.086Z,10.84
2022-10-01T01:34:53.016Z,10.84
2022-10-01T01:35:03.089Z,10.83
2022-10-01T01:35:13.089Z,10.83
2022-10-01T01:35:23.042Z,10.83
2022-10-01T01:35:33.117Z,10.83
2022-10-01T01:35:43.007Z,10.83
2022-10-01T01:35:53.141Z,10.84
2022-10-01T01:36:03.015Z,10.83
2022-10-01T01:36:13.069Z,10.81
2022-10-01T01:36:22.996Z,10.81
2022-10-01T01:36:32.999Z,10.81
2022-10-01T01:36:43.123Z,10.81
2022-10-01T01:36:53.104Z,10.78
2022-10-01T01:37:03.085Z,10.81
2022-10-01T01:37:13.051Z,10.81
2022-10-01T01:37:23.023Z,10.81
2022-10-01T01:37:33.104Z,10.81
2022-10-01T01:37:43.059Z,10.83
2022-10-01T01:37:53.049Z,10.81
2022-10-01T01:38:03.017Z,10.83
2022-10-01T01:38:13.042Z,10.84
2022-10-01T01:38:23.121Z,10.83
2022-10-01T01:38:33.019Z,10.83
2022-10-01T01:38:43.149Z,10.81
2022-10-01T01:38:53.133Z,10.84
2022-10-01T01:39:03.078Z,10.81
2022-10-01T01:39:13.014Z,10.83
2022-10-01T01:39:23.087Z,10.83
2022-10-01T01:39:33.033Z,10.81
2022-10-01T01:39:43.081Z,10.81
2022-10-01T01:39:53.037Z,10.81
2022-10-01T01:40:03.060Z,10.83
2022-10-01T01:40:13.012Z,10.81
2022-10-01T01:40:23.002Z,10.81
2022-10-01T01:40:33.043Z,10.81
2022-10-01T01:40:43.024Z,10.81
2022-10-01T01:40:53.024Z,10.81
2022-10-01T01:41:03.122Z,10.81
2022-10-01T01:41:13.066Z,10.80
2022-10-01T01:41:23.077Z,10.81
2022-10-01T01:41:33.339Z,10.80
2022-10-01T01:41:43.013Z,10.81
2022-10-01T01:41:53.123Z,10.81
2022-10-01T01:42:03.091Z,10.81
2022-10-01T01:42:13.026Z,10.81
2022-10-01T01:42:23.114Z,10.81
2022-10-01T01:42:33.026Z,10.80
2022-10-01T01:42:43.095Z,10.81
2022-10-01T01:42:53.067Z,10.80
2022-10-01T01:43:03.025Z,10.81
2022-10-01T01:43:13.049Z,10.81
2022-10-01T01:43:23.106Z,10.81
2022-10-01T01:43:33.038Z,10.81
2022-10-01T01:43:43.060Z,10.81
2022-10-01T01:43:53.055Z,10.81
2022-10-01T01:44:03.047Z,10.83
2022-10-01T01:44:13.115Z,10.81
2022-10-01T01:44:23.079Z,10.81
2022-10-01T01:44:33.079Z,10.83
2022-10-01T01:44:43.019Z,10.81
2022-10-01T01:44:53.027Z,10.83
2022-10-01T01:45:03.046Z,10.81
2022-10-01T01:45:13.038Z,10.83
2022-10-01T01:45:23.156Z,10.81
2022-10-01T01:45:33.087Z,10.81
2022-10-01T01:45:43.192Z,10.83
2022-10-01T01:45:53.064Z,10.83
2022-10-01T01:46:03.051Z,10.81
2022-10-01T01:46:13.218Z,10.81
2022-10-01T01:46:23.131Z,10.81
2022-10-01T01:46:33.025Z,10.81
2022-10-01T01:46:43.047Z,10.81
2022-10-01T01:46:53.102Z,10.83
2022-10-01T01:47:03.068Z,10.81
2022-10-01T01:47:13.040Z,10.81
2022-10-01T01:47:23.016Z,10.81
2022-10-01T01:47:33.107Z,10.81
2022-10-01T01:47:43.012Z,10.80
2022-10-01T01:47:53.029Z,10.80
2022-10-01T01:48:03.126Z,10.80
2022-10-01T01:48:13.123Z,10.80
2022-10-01T01:48:23.005Z,10.80
2022-10-01T01:48:33.035Z,10.80
2022-10-01T01:48:43.052Z,10.81
2022-10-01T01:48:53.033Z,10.81
2022-10-01T01:49:03.113Z,10.80
2022-10-01T01:49:13.070Z,10.81
2022-10-01T01:49:23.009Z,10.80
2022-10-01T01:49:33.032Z,10.80
2022-10-01T01:49:43.117Z,10.81
2022-10-01T01:49:53.009Z,10.81
2022-10-01T01:50:03.133Z,10.78
2022-10-01T01:50:13.104Z,10.80
2022-10-01T01:50:23.113Z,10.80
2022-10-01T01:50:33.056Z,10.80
2022-10-01T01:50:43.034Z,10.80
2022-10-01T01:50:53.130Z,10.80
2022-10-01T01:51:03.058Z,10.78
2022-10-01T01:51:13.109Z,10.78
2022-10-01T01:51:23.014Z,10.78
2022-10-01T01:51:33.384Z,10.76
2022-10-01T01:51:43.096Z,10.76
2022-10-01T01:51:53.119Z,10.78
2022-10-01T01:52:03.107Z,10.75
2022-10-01T01:52:13.111Z,10.76
2022-10-01T01:52:23.107Z,10.76
2022-10-01T01:52:33.062Z,10.75
2022-10-01T01:52:43.040Z,10.76
2022-10-01T01:52:53.025Z,10.76
2022-10-01T01:53:03.025Z,10.75
2022-10-01T01:53:13.038Z,10.76
2022-10-01T01:53:23.107Z,10.76
2022-10-01T01:53:32.989Z,10.76
2022-10-01T01:53:43.108Z,10.75
2022-10-01T01:53:53.035Z,10.73
2022-10-01T01:54:03.000Z,10.73
2022-10-01T01:54:13.093Z,10.75
2022-10-01T01:54:23.001Z,10.75
2022-10-01T01:54:33.118Z,10.73
2022-10-01T01:54:43.018Z,10.75
2022-10-01T01:54:53.081Z,10.75
2022-10-01T01:55:03.026Z,10.75
2022-10-01T01:55:13.074Z,10.76
2022-10-01T01:55:23.073Z,10.75
2022-10-01T01:55:33.055Z,10.73
2022-10-01T01:55:43.075Z,10.75
2022-10-01T01:55:53.015Z,10.75
2022-10-01T01:56:03.112Z,10.75
2022-10-01T01:56:13.089Z,10.73
2022-10-01T01:56:23.028Z,10.75
2022-10-01T01:56:32.992Z,10.75
2022-10-01T01:56:43.098Z,10.73
2022-10-01T01:56:53.084Z,10.75
2022-10-01T01:57:03.108Z,10.73
2022-10-01T01:57:12.989Z,10.73
2022-10-01T01:57:23.009Z,10.75
2022-10-01T01:57:33.081Z,10.75
2022-10-01T01:57:43.033Z,10.75
2022-10-01T01:57:53.052Z,10.75
2022-10-01T01:58:03.066Z,10.75
2022-10-01T01:58:13.112Z,10.75
2022-10-01T01:58:23.097Z,10.73
2022-10-01T01:58:32.996Z,10.75
2022-10-01T01:58:43.096Z,10.75
2022-10-01T01:58:53.042Z,10.72
2022-10-01T01:59:02.996Z,10.73
2022-10-01T01:59:12.991Z,10.73
2022-10-01T01:59:22.989Z,10.72
2022-10-01T01:59:33.115Z,10.72
2022-10-01T01:59:43.076Z,10.72
2022-10-01T01:59:53.089Z,10.72
2022-10-01T02:00:03.068Z,10.72
2022-10-01T02:00:13.092Z,10.72
2022-10-01T02:00:23.066Z,10.72
2022-10-01T02:00:33.082Z,10.70
2022-10-01T02:00:43.055Z,10.72
2022-10-01T02:00:53.020Z,10.70
2022-10-01T02:01:03.082Z,10.72
2022-10-01T02:01:13.131Z,10.72
2022-10-01T02:01:23.109Z,10.72
2022-10-01T02:01:33.541Z,10.70
2022-10-01T02:01:43.149Z,10.70
2022-10-01T02:01:53.170Z,10.72
2022-10-01T02:02:03.127Z,10.72
2022-10-01T02:02:13.194Z,10.72
2022-10-01T02:02:23.068Z,10.70
2022-10-01T02:02:33.254Z,10.72
2022-10-01T02:02:43.072Z,10.72
2022-10-01T02:02:53.059Z,10.72
2022-10-01T02:03:03.100Z,10.72
2022-10-01T02:03:13.034Z,10.70
2022-10-01T02:03:23.081Z,10.72
2022-10-01T02:03:33.031Z,10.72
2022-10-01T02:03:43.004Z,10.70
2022-10-01T02:03:53.029Z,10.73
2022-10-01T02:04:02.995Z,10.70
2022-10-01T02:04:13.073Z,10.70
2022-10-01T02:04:23.034Z,10.72
2022-10-01T02:04:33.086Z,10.72
2022-10-01T02:04:43.089Z,10.72
2022-10-01T02:04:53.025Z,10.70
2022-10-01T02:05:02.999Z,10.72
2022-10-01T02:05:12.997Z,10.72
2022-10-01T02:05:23.021Z,10.69
2022-10-01T02:05:33.077Z,10.70
2022-10-01T02:05:43.084Z,10.70
2022-10-01T02:05:53.004Z,10.72
2022-10-01T02:06:03.030Z,10.70
2022-10-01T02:06:13.016Z,10.72
2022-10-01T02:06:23.081Z,10.70
2022-10-01T02:06:33.028Z,10.69
2022-10-01T02:06:43.006Z,10.70
2022-10-01T02:06:53.031Z,10.70
2022-10-01T02:07:03.001Z,10.70
2022-10-01T02:07:13.081Z,10.69
2022-10-01T02:07:23.118Z,10.70
2022-10-01T02:07:33.051Z,10.70
2022-10-01T02:07:43.119Z,10.70
2022-10-01T02:07:53.121Z,10.70
2022-10-01T02:08:02.997Z,10.69
2022-10-01T02:08:13.083Z,10.70
2022-10-01T02:08:23.075Z,10.70
2022-10-01T02:08:33.109Z,10.69
2022-10-01T02:08:43.056Z,10.70
2022-10-01T02:08:53.031Z,10.69
2022-10-01T02:09:03.121Z,10.69
2022-10-01T02:09:13.037Z,10.69
2022-10-01T02:09:23.046Z,10.70
2022-10-01T02:09:33.035Z,10.70
2022-10-01T02:09:43.056Z,10.69
2022-10-01T02:09:53.086Z,10.70
2022-10-01T02:10:03.059Z,10.70